sensor_id;sensor_type;location;lat;lon;timestamp;P1;durP1;ratioP1;P2;durP2;ratioP2
55489;SDS011;44029;52.956;4.772;2022-08-25T00:03:50;17.23;;;11.13;;
55489;SDS011;44029;52.956;4.772;2022-08-25T00:06:16;16.48;;;8.75;;
55489;SDS011;44029;52.956;4.772;2022-08-25T00:08:43;14.48;;;9.95;;
55489;SDS011;44029;52.956;4.772;2022-08-25T00:11:10;17.73;;;12.65;;
55489;SDS011;44029;52.956;4.772;2022-08-25T00:13:39;35.78;;;23.90;;
55489;SDS011;44029;52.956;4.772;2022-08-25T00:16:08;23.65;;;17.38;;
55489;SDS011;44029;52.956;4.772;2022-08-25T00:18:35;14.07;;;10.68;;
55489;SDS011;44029;52.956;4.772;2022-08-25T00:21:01;15.60;;;10.65;;
55489;SDS011;44029;52.956;4.772;2022-08-25T00:23:27;15.68;;;10.55;;
55489;SDS011;44029;52.956;4.772;2022-08-25T00:25:52;16.95;;;11.18;;
55489;SDS011;44029;52.956;4.772;2022-08-25T00:28:19;16.27;;;11.60;;
55489;SDS011;44029;52.956;4.772;2022-08-25T00:30:45;16.73;;;11.32;;
55489;SDS011;44029;52.956;4.772;2022-08-25T00:33:10;19.85;;;11.23;;
55489;SDS011;44029;52.956;4.772;2022-08-25T00:35:36;15.13;;;11.57;;
55489;SDS011;44029;52.956;4.772;2022-08-25T00:38:01;13.95;;;11.45;;
55489;SDS011;44029;52.956;4.772;2022-08-25T00:40:27;15.10;;;12.02;;
55489;SDS011;44029;52.956;4.772;2022-08-25T00:42:53;17.63;;;11.70;;
55489;SDS011;44029;52.956;4.772;2022-08-25T00:45:20;23.15;;;12.38;;
55489;SDS011;44029;52.956;4.772;2022-08-25T00:47:46;16.25;;;11.70;;
55489;SDS011;44029;52.956;4.772;2022-08-25T00:50:11;17.88;;;12.73;;
55489;SDS011;44029;52.956;4.772;2022-08-25T00:52:44;18.55;;;12.68;;
55489;SDS011;44029;52.956;4.772;2022-08-25T00:55:17;17.23;;;12.48;;
55489;SDS011;44029;52.956;4.772;2022-08-25T00:57:46;17.38;;;12.93;;
55489;SDS011;44029;52.956;4.772;2022-08-25T01:00:18;16.83;;;12.70;;
55489;SDS011;44029;52.956;4.772;2022-08-25T01:02:47;16.85;;;13.60;;
55489;SDS011;44029;52.956;4.772;2022-08-25T01:05:13;22.15;;;13.63;;
55489;SDS011;44029;52.956;4.772;2022-08-25T01:07:38;18.67;;;14.70;;
55489;SDS011;44029;52.956;4.772;2022-08-25T01:10:05;21.23;;;14.57;;
55489;SDS011;44029;52.956;4.772;2022-08-25T01:12:33;22.70;;;14.70;;
55489;SDS011;44029;52.956;4.772;2022-08-25T01:14:59;20.73;;;15.48;;
55489;SDS011;44029;52.956;4.772;2022-08-25T01:17:31;20.25;;;15.90;;
55489;SDS011;44029;52.956;4.772;2022-08-25T01:20:08;22.83;;;15.85;;
55489;SDS011;44029;52.956;4.772;2022-08-25T01:22:34;19.50;;;16.60;;
55489;SDS011;44029;52.956;4.772;2022-08-25T01:25:01;23.08;;;16.98;;
55489;SDS011;44029;52.956;4.772;2022-08-25T01:27:31;27.27;;;16.30;;
55489;SDS011;44029;52.956;4.772;2022-08-25T01:29:57;25.63;;;17.90;;
55489;SDS011;44029;52.956;4.772;2022-08-25T01:32:22;24.38;;;16.40;;
55489;SDS011;44029;52.956;4.772;2022-08-25T01:34:47;25.50;;;19.35;;
55489;SDS011;44029;52.956;4.772;2022-08-25T01:37:13;23.77;;;17.70;;
55489;SDS011;44029;52.956;4.772;2022-08-25T01:39:40;31.27;;;18.80;;
55489;SDS011;44029;52.956;4.772;2022-08-25T01:45:10;26.20;;;20.80;;
55489;SDS011;44029;52.956;4.772;2022-08-25T01:47:35;28.30;;;20.48;;
55489;SDS011;44029;52.956;4.772;2022-08-25T01:50:02;25.63;;;19.05;;
55489;SDS011;44029;52.956;4.772;2022-08-25T01:53:13;29.33;;;21.70;;
55489;SDS011;44029;52.956;4.772;2022-08-25T01:55:23;27.13;;;20.15;;
55489;SDS011;44029;52.956;4.772;2022-08-25T01:57:49;28.95;;;20.85;;
55489;SDS011;44029;52.956;4.772;2022-08-25T02:00:15;26.85;;;20.50;;
55489;SDS011;44029;52.956;4.772;2022-08-25T02:02:43;32.95;;;22.92;;
55489;SDS011;44029;52.956;4.772;2022-08-25T02:05:12;28.50;;;23.08;;
55489;SDS011;44029;52.956;4.772;2022-08-25T02:07:40;30.67;;;23.08;;
55489;SDS011;44029;52.956;4.772;2022-08-25T02:10:07;38.10;;;23.67;;
55489;SDS011;44029;52.956;4.772;2022-08-25T02:12:33;32.60;;;24.98;;
55489;SDS011;44029;52.956;4.772;2022-08-25T02:15:00;30.88;;;22.17;;
55489;SDS011;44029;52.956;4.772;2022-08-25T02:17:26;33.65;;;23.40;;
55489;SDS011;44029;52.956;4.772;2022-08-25T02:19:53;29.42;;;22.83;;
55489;SDS011;44029;52.956;4.772;2022-08-25T02:22:20;34.65;;;22.77;;
55489;SDS011;44029;52.956;4.772;2022-08-25T02:24:45;30.95;;;21.95;;
55489;SDS011;44029;52.956;4.772;2022-08-25T02:27:12;34.33;;;22.25;;
55489;SDS011;44029;52.956;4.772;2022-08-25T02:29:37;31.70;;;22.33;;
55489;SDS011;44029;52.956;4.772;2022-08-25T02:32:02;25.95;;;21.23;;
55489;SDS011;44029;52.956;4.772;2022-08-25T02:34:28;26.38;;;21.23;;
55489;SDS011;44029;52.956;4.772;2022-08-25T02:36:54;29.00;;;21.88;;
55489;SDS011;44029;52.956;4.772;2022-08-25T02:39:19;27.67;;;18.40;;
55489;SDS011;44029;52.956;4.772;2022-08-25T02:41:44;23.20;;;16.48;;
55489;SDS011;44029;52.956;4.772;2022-08-25T02:44:10;21.38;;;15.18;;
55489;SDS011;44029;52.956;4.772;2022-08-25T02:46:35;16.95;;;14.95;;
55489;SDS011;44029;52.956;4.772;2022-08-25T02:49:02;23.35;;;15.90;;
55489;SDS011;44029;52.956;4.772;2022-08-25T02:51:28;27.60;;;16.90;;
55489;SDS011;44029;52.956;4.772;2022-08-25T02:53:54;23.75;;;17.33;;
55489;SDS011;44029;52.956;4.772;2022-08-25T02:56:21;21.83;;;16.67;;
55489;SDS011;44029;52.956;4.772;2022-08-25T02:58:48;23.90;;;17.45;;
55489;SDS011;44029;52.956;4.772;2022-08-25T03:01:14;25.27;;;18.85;;
55489;SDS011;44029;52.956;4.772;2022-08-25T03:03:41;27.05;;;18.95;;
55489;SDS011;44029;52.956;4.772;2022-08-25T03:06:08;23.75;;;18.70;;
55489;SDS011;44029;52.956;4.772;2022-08-25T03:08:36;24.45;;;18.58;;
55489;SDS011;44029;52.956;4.772;2022-08-25T03:11:02;24.08;;;18.73;;
55489;SDS011;44029;52.956;4.772;2022-08-25T03:13:29;27.80;;;19.50;;
55489;SDS011;44029;52.956;4.772;2022-08-25T03:15:54;23.50;;;18.52;;
55489;SDS011;44029;52.956;4.772;2022-08-25T03:18:19;29.30;;;19.13;;
55489;SDS011;44029;52.956;4.772;2022-08-25T03:20:47;26.70;;;18.42;;
55489;SDS011;44029;52.956;4.772;2022-08-25T03:23:12;22.98;;;17.73;;
55489;SDS011;44029;52.956;4.772;2022-08-25T03:25:38;25.83;;;18.90;;
55489;SDS011;44029;52.956;4.772;2022-08-25T03:28:23;23.98;;;19.38;;
55489;SDS011;44029;52.956;4.772;2022-08-25T03:30:48;25.27;;;18.10;;
55489;SDS011;44029;52.956;4.772;2022-08-25T03:33:14;24.08;;;17.10;;
55489;SDS011;44029;52.956;4.772;2022-08-25T03:35:39;21.05;;;17.13;;
55489;SDS011;44029;52.956;4.772;2022-08-25T03:38:05;22.38;;;16.40;;
55489;SDS011;44029;52.956;4.772;2022-08-25T03:40:30;27.05;;;16.35;;
55489;SDS011;44029;52.956;4.772;2022-08-25T03:42:56;19.35;;;16.40;;
55489;SDS011;44029;52.956;4.772;2022-08-25T03:45:22;24.77;;;17.55;;
55489;SDS011;44029;52.956;4.772;2022-08-25T03:47:48;21.10;;;17.35;;
55489;SDS011;44029;52.956;4.772;2022-08-25T03:50:15;21.23;;;16.00;;
55489;SDS011;44029;52.956;4.772;2022-08-25T03:52:42;19.40;;;15.43;;
55489;SDS011;44029;52.956;4.772;2022-08-25T03:55:08;21.67;;;16.15;;
55489;SDS011;44029;52.956;4.772;2022-08-25T03:57:35;20.55;;;15.23;;
55489;SDS011;44029;52.956;4.772;2022-08-25T04:00:01;23.98;;;16.25;;
55489;SDS011;44029;52.956;4.772;2022-08-25T04:02:32;20.48;;;15.60;;
55489;SDS011;44029;52.956;4.772;2022-08-25T04:04:57;18.85;;;15.45;;
55489;SDS011;44029;52.956;4.772;2022-08-25T04:07:23;22.90;;;14.80;;
55489;SDS011;44029;52.956;4.772;2022-08-25T04:09:48;19.83;;;13.68;;
55489;SDS011;44029;52.956;4.772;2022-08-25T04:12:13;19.30;;;13.27;;
55489;SDS011;44029;52.956;4.772;2022-08-25T04:14:39;16.48;;;14.52;;
55489;SDS011;44029;52.956;4.772;2022-08-25T04:17:05;21.73;;;14.63;;
55489;SDS011;44029;52.956;4.772;2022-08-25T04:19:30;18.02;;;13.82;;
55489;SDS011;44029;52.956;4.772;2022-08-25T04:21:55;20.83;;;13.30;;
55489;SDS011;44029;52.956;4.772;2022-08-25T04:24:21;17.77;;;13.60;;
55489;SDS011;44029;52.956;4.772;2022-08-25T04:26:47;18.20;;;13.50;;
55489;SDS011;44029;52.956;4.772;2022-08-25T04:29:16;16.85;;;13.30;;
55489;SDS011;44029;52.956;4.772;2022-08-25T04:31:45;18.65;;;12.57;;
55489;SDS011;44029;52.956;4.772;2022-08-25T04:34:11;16.25;;;12.10;;
55489;SDS011;44029;52.956;4.772;2022-08-25T04:36:37;14.07;;;12.38;;
55489;SDS011;44029;52.956;4.772;2022-08-25T04:39:03;17.75;;;12.48;;
55489;SDS011;44029;52.956;4.772;2022-08-25T04:41:28;14.55;;;11.68;;
55489;SDS011;44029;52.956;4.772;2022-08-25T04:43:55;13.27;;;11.52;;
55489;SDS011;44029;52.956;4.772;2022-08-25T04:46:23;25.17;;;11.63;;
55489;SDS011;44029;52.956;4.772;2022-08-25T04:48:51;13.55;;;11.52;;
55489;SDS011;44029;52.956;4.772;2022-08-25T04:51:18;13.68;;;11.07;;
55489;SDS011;44029;52.956;4.772;2022-08-25T04:53:47;12.93;;;10.80;;
55489;SDS011;44029;52.956;4.772;2022-08-25T04:56:14;14.95;;;10.02;;
55489;SDS011;44029;52.956;4.772;2022-08-25T04:58:41;15.60;;;9.50;;
55489;SDS011;44029;52.956;4.772;2022-08-25T05:01:08;11.02;;;8.90;;
55489;SDS011;44029;52.956;4.772;2022-08-25T05:03:35;11.98;;;8.95;;
55489;SDS011;44029;52.956;4.772;2022-08-25T05:06:01;13.38;;;8.73;;
55489;SDS011;44029;52.956;4.772;2022-08-25T05:08:27;12.85;;;8.25;;
55489;SDS011;44029;52.956;4.772;2022-08-25T05:10:52;26.40;;;8.98;;
55489;SDS011;44029;52.956;4.772;2022-08-25T05:13:19;11.65;;;8.75;;
55489;SDS011;44029;52.956;4.772;2022-08-25T05:15:50;13.43;;;8.13;;
55489;SDS011;44029;52.956;4.772;2022-08-25T05:18:17;11.57;;;7.20;;
55489;SDS011;44029;52.956;4.772;2022-08-25T05:20:44;12.32;;;7.75;;
55489;SDS011;44029;52.956;4.772;2022-08-25T05:23:09;11.02;;;7.05;;
55489;SDS011;44029;52.956;4.772;2022-08-25T05:25:35;12.73;;;6.30;;
55489;SDS011;44029;52.956;4.772;2022-08-25T05:28:01;13.52;;;7.30;;
55489;SDS011;44029;52.956;4.772;2022-08-25T05:30:26;15.65;;;6.78;;
55489;SDS011;44029;52.956;4.772;2022-08-25T05:32:52;8.60;;;6.05;;
55489;SDS011;44029;52.956;4.772;2022-08-25T05:35:17;14.32;;;6.28;;
55489;SDS011;44029;52.956;4.772;2022-08-25T05:37:44;7.85;;;6.18;;
55489;SDS011;44029;52.956;4.772;2022-08-25T05:40:09;19.50;;;6.32;;
55489;SDS011;44029;52.956;4.772;2022-08-25T05:42:35;13.70;;;5.80;;
55489;SDS011;44029;52.956;4.772;2022-08-25T05:45:01;9.80;;;6.20;;
55489;SDS011;44029;52.956;4.772;2022-08-25T05:47:30;14.55;;;6.90;;
55489;SDS011;44029;52.956;4.772;2022-08-25T05:49:55;9.07;;;6.40;;
55489;SDS011;44029;52.956;4.772;2022-08-25T05:52:21;11.18;;;6.43;;
55489;SDS011;44029;52.956;4.772;2022-08-25T05:54:46;7.85;;;6.35;;
55489;SDS011;44029;52.956;4.772;2022-08-25T05:57:12;16.30;;;6.07;;
55489;SDS011;44029;52.956;4.772;2022-08-25T05:59:38;11.60;;;5.90;;
55489;SDS011;44029;52.956;4.772;2022-08-25T06:02:03;8.48;;;5.65;;
55489;SDS011;44029;52.956;4.772;2022-08-25T06:04:47;6.22;;;4.93;;
55489;SDS011;44029;52.956;4.772;2022-08-25T06:07:12;8.85;;;5.68;;
55489;SDS011;44029;52.956;4.772;2022-08-25T06:09:39;6.53;;;5.32;;
55489;SDS011;44029;52.956;4.772;2022-08-25T06:12:05;9.82;;;5.18;;
55489;SDS011;44029;52.956;4.772;2022-08-25T06:14:32;11.80;;;5.13;;
55489;SDS011;44029;52.956;4.772;2022-08-25T06:16:57;8.07;;;4.97;;
55489;SDS011;44029;52.956;4.772;2022-08-25T06:19:24;9.00;;;5.40;;
55489;SDS011;44029;52.956;4.772;2022-08-25T06:21:52;7.00;;;5.53;;
55489;SDS011;44029;52.956;4.772;2022-08-25T06:24:19;10.18;;;5.10;;
55489;SDS011;44029;52.956;4.772;2022-08-25T06:26:44;7.00;;;5.43;;
55489;SDS011;44029;52.956;4.772;2022-08-25T06:29:10;18.05;;;5.82;;
55489;SDS011;44029;52.956;4.772;2022-08-25T06:31:38;15.35;;;6.05;;
55489;SDS011;44029;52.956;4.772;2022-08-25T06:34:03;8.40;;;4.53;;
55489;SDS011;44029;52.956;4.772;2022-08-25T06:36:35;7.57;;;5.15;;
55489;SDS011;44029;52.956;4.772;2022-08-25T06:39:06;12.68;;;4.97;;
55489;SDS011;44029;52.956;4.772;2022-08-25T06:41:32;11.15;;;5.30;;
55489;SDS011;44029;52.956;4.772;2022-08-25T06:44:00;9.05;;;4.90;;
55489;SDS011;44029;52.956;4.772;2022-08-25T06:46:28;10.48;;;4.85;;
55489;SDS011;44029;52.956;4.772;2022-08-25T06:48:55;9.75;;;5.15;;
55489;SDS011;44029;52.956;4.772;2022-08-25T06:51:21;10.55;;;4.88;;
55489;SDS011;44029;52.956;4.772;2022-08-25T06:53:49;12.80;;;5.60;;
55489;SDS011;44029;52.956;4.772;2022-08-25T06:56:17;5.97;;;4.60;;
55489;SDS011;44029;52.956;4.772;2022-08-25T06:58:46;7.30;;;4.63;;
55489;SDS011;44029;52.956;4.772;2022-08-25T07:01:13;13.05;;;5.05;;
55489;SDS011;44029;52.956;4.772;2022-08-25T07:03:40;10.55;;;4.57;;
55489;SDS011;44029;52.956;4.772;2022-08-25T07:06:07;14.40;;;5.68;;
55489;SDS011;44029;52.956;4.772;2022-08-25T07:08:32;10.65;;;5.22;;
55489;SDS011;44029;52.956;4.772;2022-08-25T07:11:09;14.13;;;4.65;;
55489;SDS011;44029;52.956;4.772;2022-08-25T07:13:36;36.15;;;8.15;;
55489;SDS011;44029;52.956;4.772;2022-08-25T07:16:02;16.35;;;4.65;;
55489;SDS011;44029;52.956;4.772;2022-08-25T07:18:29;13.45;;;4.82;;
55489;SDS011;44029;52.956;4.772;2022-08-25T07:20:54;37.83;;;14.63;;
55489;SDS011;44029;52.956;4.772;2022-08-25T07:23:21;9.30;;;6.20;;
55489;SDS011;44029;52.956;4.772;2022-08-25T07:25:47;8.32;;;5.97;;
55489;SDS011;44029;52.956;4.772;2022-08-25T07:28:13;11.77;;;5.10;;
55489;SDS011;44029;52.956;4.772;2022-08-25T07:30:39;14.88;;;4.75;;
55489;SDS011;44029;52.956;4.772;2022-08-25T07:33:05;8.95;;;4.70;;
55489;SDS011;44029;52.956;4.772;2022-08-25T07:35:30;8.68;;;5.05;;
55489;SDS011;44029;52.956;4.772;2022-08-25T07:37:56;9.85;;;5.00;;
55489;SDS011;44029;52.956;4.772;2022-08-25T07:40:33;5.85;;;4.43;;
55489;SDS011;44029;52.956;4.772;2022-08-25T07:43:05;13.52;;;4.60;;
55489;SDS011;44029;52.956;4.772;2022-08-25T07:45:35;7.32;;;4.95;;
55489;SDS011;44029;52.956;4.772;2022-08-25T07:48:04;9.00;;;4.95;;
55489;SDS011;44029;52.956;4.772;2022-08-25T07:50:31;16.00;;;5.55;;
55489;SDS011;44029;52.956;4.772;2022-08-25T07:52:58;19.88;;;5.05;;
55489;SDS011;44029;52.956;4.772;2022-08-25T07:55:27;6.70;;;4.07;;
55489;SDS011;44029;52.956;4.772;2022-08-25T07:57:55;8.07;;;3.53;;
55489;SDS011;44029;52.956;4.772;2022-08-25T08:00:21;6.53;;;3.53;;
55489;SDS011;44029;52.956;4.772;2022-08-25T08:02:47;8.68;;;3.67;;
55489;SDS011;44029;52.956;4.772;2022-08-25T08:05:13;5.80;;;4.18;;
55489;SDS011;44029;52.956;4.772;2022-08-25T08:07:39;8.73;;;3.70;;
55489;SDS011;44029;52.956;4.772;2022-08-25T08:10:06;8.27;;;3.80;;
55489;SDS011;44029;52.956;4.772;2022-08-25T08:12:33;7.63;;;3.63;;
55489;SDS011;44029;52.956;4.772;2022-08-25T08:14:59;10.15;;;3.85;;
55489;SDS011;44029;52.956;4.772;2022-08-25T08:17:26;11.57;;;3.67;;
55489;SDS011;44029;52.956;4.772;2022-08-25T08:19:52;10.50;;;3.30;;
55489;SDS011;44029;52.956;4.772;2022-08-25T08:22:18;7.15;;;2.90;;
55489;SDS011;44029;52.956;4.772;2022-08-25T08:24:43;6.78;;;3.17;;
55489;SDS011;44029;52.956;4.772;2022-08-25T08:27:12;7.13;;;3.10;;
55489;SDS011;44029;52.956;4.772;2022-08-25T08:29:38;6.13;;;3.05;;
55489;SDS011;44029;52.956;4.772;2022-08-25T08:32:05;5.00;;;3.20;;
55489;SDS011;44029;52.956;4.772;2022-08-25T08:34:33;7.88;;;3.05;;
55489;SDS011;44029;52.956;4.772;2022-08-25T08:36:59;7.78;;;2.83;;
55489;SDS011;44029;52.956;4.772;2022-08-25T08:39:25;8.65;;;2.72;;
55489;SDS011;44029;52.956;4.772;2022-08-25T08:55:43;13.55;;;3.95;;
55489;SDS011;44029;52.956;4.772;2022-08-25T08:58:17;13.65;;;3.78;;
55489;SDS011;44029;52.956;4.772;2022-08-25T09:00:45;7.22;;;3.35;;
55489;SDS011;44029;52.956;4.772;2022-08-25T09:03:22;11.10;;;4.05;;
55489;SDS011;44029;52.956;4.772;2022-08-25T09:06:07;5.90;;;3.05;;
55489;SDS011;44029;52.956;4.772;2022-08-25T09:08:36;12.05;;;3.92;;
55489;SDS011;44029;52.956;4.772;2022-08-25T09:11:14;10.57;;;3.60;;
55489;SDS011;44029;52.956;4.772;2022-08-25T09:22:26;15.85;;;3.70;;
55489;SDS011;44029;52.956;4.772;2022-08-25T09:25:27;10.02;;;3.22;;
55489;SDS011;44029;52.956;4.772;2022-08-25T09:30:59;29.70;;;4.22;;
55489;SDS011;44029;52.956;4.772;2022-08-25T09:33:24;15.02;;;3.63;;
55489;SDS011;44029;52.956;4.772;2022-08-25T09:35:52;5.65;;;3.20;;
55489;SDS011;44029;52.956;4.772;2022-08-25T09:38:18;10.23;;;3.35;;
55489;SDS011;44029;52.956;4.772;2022-08-25T09:40:46;6.10;;;3.63;;
55489;SDS011;44029;52.956;4.772;2022-08-25T09:43:18;8.98;;;3.20;;
55489;SDS011;44029;52.956;4.772;2022-08-25T09:45:44;23.23;;;4.93;;
55489;SDS011;44029;52.956;4.772;2022-08-25T09:48:23;20.08;;;4.03;;
55489;SDS011;44029;52.956;4.772;2022-08-25T09:50:52;22.60;;;3.90;;
55489;SDS011;44029;52.956;4.772;2022-08-25T09:53:23;27.48;;;4.38;;
55489;SDS011;44029;52.956;4.772;2022-08-25T09:55:55;23.00;;;3.70;;
55489;SDS011;44029;52.956;4.772;2022-08-25T09:58:28;19.42;;;3.47;;
55489;SDS011;44029;52.956;4.772;2022-08-25T10:01:04;8.70;;;3.03;;
55489;SDS011;44029;52.956;4.772;2022-08-25T10:03:51;13.10;;;3.83;;
55489;SDS011;44029;52.956;4.772;2022-08-25T10:06:18;13.70;;;3.45;;
55489;SDS011;44029;52.956;4.772;2022-08-25T10:11:11;28.17;;;4.13;;
55489;SDS011;44029;52.956;4.772;2022-08-25T10:14:01;835.17;;;54.05;;
55489;SDS011;44029;52.956;4.772;2022-08-25T10:16:30;161.50;;;10.48;;
55489;SDS011;44029;52.956;4.772;2022-08-25T10:19:01;36.47;;;4.43;;
55489;SDS011;44029;52.956;4.772;2022-08-25T10:21:38;15.02;;;3.58;;
55489;SDS011;44029;52.956;4.772;2022-08-25T10:24:05;6.40;;;3.00;;
55489;SDS011;44029;52.956;4.772;2022-08-25T10:29:10;10.18;;;3.35;;
55489;SDS011;44029;52.956;4.772;2022-08-25T10:45:22;8.50;;;3.00;;
55489;SDS011;44029;52.956;4.772;2022-08-25T10:56:32;5.05;;;2.90;;
55489;SDS011;44029;52.956;4.772;2022-08-25T11:04:32;7.65;;;2.90;;
55489;SDS011;44029;52.956;4.772;2022-08-25T11:07:26;6.30;;;2.75;;
55489;SDS011;44029;52.956;4.772;2022-08-25T11:09:54;7.15;;;2.72;;
55489;SDS011;44029;52.956;4.772;2022-08-25T11:12:31;10.43;;;3.33;;
55489;SDS011;44029;52.956;4.772;2022-08-25T11:15:01;9.93;;;2.83;;
55489;SDS011;44029;52.956;4.772;2022-08-25T11:17:40;9.45;;;3.17;;
55489;SDS011;44029;52.956;4.772;2022-08-25T11:20:11;9.00;;;3.90;;
55489;SDS011;44029;52.956;4.772;2022-08-25T11:22:46;5.72;;;2.97;;
55489;SDS011;44029;52.956;4.772;2022-08-25T11:25:29;8.07;;;2.85;;
55489;SDS011;44029;52.956;4.772;2022-08-25T11:30:35;8.70;;;2.65;;
55489;SDS011;44029;52.956;4.772;2022-08-25T11:33:02;8.55;;;2.80;;
55489;SDS011;44029;52.956;4.772;2022-08-25T11:35:31;8.25;;;3.10;;
55489;SDS011;44029;52.956;4.772;2022-08-25T11:38:17;9.48;;;3.20;;
55489;SDS011;44029;52.956;4.772;2022-08-25T11:43:41;8.27;;;2.92;;
55489;SDS011;44029;52.956;4.772;2022-08-25T11:46:33;5.53;;;2.78;;
55489;SDS011;44029;52.956;4.772;2022-08-25T11:51:59;7.85;;;2.80;;
55489;SDS011;44029;52.956;4.772;2022-08-25T11:54:29;9.65;;;3.40;;
55489;SDS011;44029;52.956;4.772;2022-08-25T12:13:23;8.27;;;2.85;;
55489;SDS011;44029;52.956;4.772;2022-08-25T12:15:58;6.53;;;2.75;;
55489;SDS011;44029;52.956;4.772;2022-08-25T12:29:00;6.28;;;2.50;;
55489;SDS011;44029;52.956;4.772;2022-08-25T12:31:44;6.20;;;2.70;;
55489;SDS011;44029;52.956;4.772;2022-08-25T12:37:22;15.95;;;6.95;;
55489;SDS011;44029;52.956;4.772;2022-08-25T12:42:56;5.30;;;4.07;;
55489;SDS011;44029;52.956;4.772;2022-08-25T12:47:48;15.32;;;6.95;;
55489;SDS011;44029;52.956;4.772;2022-08-25T12:53:08;9.60;;;5.18;;
55489;SDS011;44029;52.956;4.772;2022-08-25T12:55:34;15.60;;;6.32;;
55489;SDS011;44029;52.956;4.772;2022-08-25T12:58:02;10.68;;;3.30;;
55489;SDS011;44029;52.956;4.772;2022-08-25T13:00:31;8.38;;;3.20;;
55489;SDS011;44029;52.956;4.772;2022-08-25T13:11:32;9.38;;;5.03;;
55489;SDS011;44029;52.956;4.772;2022-08-25T13:14:15;10.68;;;5.57;;
55489;SDS011;44029;52.956;4.772;2022-08-25T13:16:52;9.38;;;5.70;;
55489;SDS011;44029;52.956;4.772;2022-08-25T13:19:19;10.20;;;6.97;;
55489;SDS011;44029;52.956;4.772;2022-08-25T13:21:44;12.27;;;6.82;;
55489;SDS011;44029;52.956;4.772;2022-08-25T13:24:10;56.58;;;8.75;;
55489;SDS011;44029;52.956;4.772;2022-08-25T13:26:59;11.05;;;7.80;;
55489;SDS011;44029;52.956;4.772;2022-08-25T13:29:29;14.38;;;6.35;;
55489;SDS011;44029;52.956;4.772;2022-08-25T13:31:58;12.85;;;8.35;;
55489;SDS011;44029;52.956;4.772;2022-08-25T13:34:34;15.20;;;8.45;;
55489;SDS011;44029;52.956;4.772;2022-08-25T13:37:08;13.93;;;7.82;;
55489;SDS011;44029;52.956;4.772;2022-08-25T13:42:43;12.43;;;8.82;;
55489;SDS011;44029;52.956;4.772;2022-08-25T13:45:15;13.82;;;9.63;;
55489;SDS011;44029;52.956;4.772;2022-08-25T13:47:44;18.98;;;12.25;;
55489;SDS011;44029;52.956;4.772;2022-08-25T13:52:39;31.38;;;22.60;;
55489;SDS011;44029;52.956;4.772;2022-08-25T13:55:04;22.65;;;14.05;;
55489;SDS011;44029;52.956;4.772;2022-08-25T13:57:30;18.52;;;13.60;;
55489;SDS011;44029;52.956;4.772;2022-08-25T14:00:06;42.97;;;28.88;;
55489;SDS011;44029;52.956;4.772;2022-08-25T14:05:11;21.05;;;14.32;;
55489;SDS011;44029;52.956;4.772;2022-08-25T14:07:38;21.52;;;14.77;;
55489;SDS011;44029;52.956;4.772;2022-08-25T14:10:09;27.25;;;18.05;;
55489;SDS011;44029;52.956;4.772;2022-08-25T14:15:39;16.88;;;12.02;;
55489;SDS011;44029;52.956;4.772;2022-08-25T14:18:17;24.30;;;17.27;;
55489;SDS011;44029;52.956;4.772;2022-08-25T14:20:51;24.00;;;16.42;;
55489;SDS011;44029;52.956;4.772;2022-08-25T14:23:22;66.75;;;30.40;;
55489;SDS011;44029;52.956;4.772;2022-08-25T14:25:51;25.05;;;17.13;;
55489;SDS011;44029;52.956;4.772;2022-08-25T14:28:19;24.65;;;17.67;;
55489;SDS011;44029;52.956;4.772;2022-08-25T14:30:47;23.80;;;16.92;;
55489;SDS011;44029;52.956;4.772;2022-08-25T14:33:16;26.67;;;18.73;;
55489;SDS011;44029;52.956;4.772;2022-08-25T14:35:45;26.05;;;18.23;;
55489;SDS011;44029;52.956;4.772;2022-08-25T14:38:12;25.67;;;18.95;;
55489;SDS011;44029;52.956;4.772;2022-08-25T14:40:38;26.73;;;19.00;;
55489;SDS011;44029;52.956;4.772;2022-08-25T14:43:04;27.25;;;17.95;;
55489;SDS011;44029;52.956;4.772;2022-08-25T14:45:30;26.08;;;19.60;;
55489;SDS011;44029;52.956;4.772;2022-08-25T14:47:56;25.48;;;19.30;;
55489;SDS011;44029;52.956;4.772;2022-08-25T14:50:29;29.75;;;18.70;;
55489;SDS011;44029;52.956;4.772;2022-08-25T14:52:55;27.05;;;18.27;;
55489;SDS011;44029;52.956;4.772;2022-08-25T14:55:20;24.45;;;18.27;;
55489;SDS011;44029;52.956;4.772;2022-08-25T14:57:46;25.55;;;18.13;;
55489;SDS011;44029;52.956;4.772;2022-08-25T15:00:11;32.92;;;20.65;;
55489;SDS011;44029;52.956;4.772;2022-08-25T15:02:38;26.67;;;19.60;;
55489;SDS011;44029;52.956;4.772;2022-08-25T15:05:06;24.40;;;17.25;;
55489;SDS011;44029;52.956;4.772;2022-08-25T15:07:36;54.38;;;32.30;;
55489;SDS011;44029;52.956;4.772;2022-08-25T15:10:20;52.80;;;34.33;;
55489;SDS011;44029;52.956;4.772;2022-08-25T15:12:45;25.33;;;19.20;;
55489;SDS011;44029;52.956;4.772;2022-08-25T15:15:11;36.72;;;25.58;;
55489;SDS011;44029;52.956;4.772;2022-08-25T15:17:37;24.48;;;17.95;;
55489;SDS011;44029;52.956;4.772;2022-08-25T15:20:05;22.65;;;18.10;;
55489;SDS011;44029;52.956;4.772;2022-08-25T15:22:31;28.13;;;20.67;;
55489;SDS011;44029;52.956;4.772;2022-08-25T15:24:56;24.38;;;20.92;;
55489;SDS011;44029;52.956;4.772;2022-08-25T15:27:22;33.55;;;25.77;;
55489;SDS011;44029;52.956;4.772;2022-08-25T15:29:47;26.08;;;19.85;;
55489;SDS011;44029;52.956;4.772;2022-08-25T15:32:12;33.88;;;21.13;;
55489;SDS011;44029;52.956;4.772;2022-08-25T15:34:38;32.20;;;23.95;;
55489;SDS011;44029;52.956;4.772;2022-08-25T15:37:11;27.52;;;21.42;;
55489;SDS011;44029;52.956;4.772;2022-08-25T15:39:38;34.15;;;26.45;;
55489;SDS011;44029;52.956;4.772;2022-08-25T15:42:07;30.23;;;24.02;;
55489;SDS011;44029;52.956;4.772;2022-08-25T15:44:34;31.17;;;23.30;;
55489;SDS011;44029;52.956;4.772;2022-08-25T15:47:00;31.67;;;24.45;;
55489;SDS011;44029;52.956;4.772;2022-08-25T15:49:25;30.73;;;25.08;;
55489;SDS011;44029;52.956;4.772;2022-08-25T15:51:51;35.10;;;26.60;;
55489;SDS011;44029;52.956;4.772;2022-08-25T15:54:17;77.85;;;54.47;;
55489;SDS011;44029;52.956;4.772;2022-08-25T15:56:42;36.22;;;26.35;;
55489;SDS011;44029;52.956;4.772;2022-08-25T15:59:08;32.20;;;25.73;;
55489;SDS011;44029;52.956;4.772;2022-08-25T16:01:34;38.08;;;31.00;;
55489;SDS011;44029;52.956;4.772;2022-08-25T16:03:59;52.17;;;31.73;;
55489;SDS011;44029;52.956;4.772;2022-08-25T16:06:25;37.97;;;30.08;;
55489;SDS011;44029;52.956;4.772;2022-08-25T16:08:50;37.22;;;29.15;;
55489;SDS011;44029;52.956;4.772;2022-08-25T16:11:17;42.00;;;32.58;;
55489;SDS011;44029;52.956;4.772;2022-08-25T16:13:54;46.42;;;33.35;;
55489;SDS011;44029;52.956;4.772;2022-08-25T16:16:21;41.65;;;29.98;;
55489;SDS011;44029;52.956;4.772;2022-08-25T16:18:48;42.78;;;32.63;;
55489;SDS011;44029;52.956;4.772;2022-08-25T16:21:15;39.53;;;29.73;;
55489;SDS011;44029;52.956;4.772;2022-08-25T16:23:47;39.25;;;29.35;;
55489;SDS011;44029;52.956;4.772;2022-08-25T16:26:13;46.45;;;35.53;;
55489;SDS011;44029;52.956;4.772;2022-08-25T16:28:40;47.20;;;30.17;;
55489;SDS011;44029;52.956;4.772;2022-08-25T16:31:13;39.28;;;29.23;;
55489;SDS011;44029;52.956;4.772;2022-08-25T16:33:40;41.60;;;29.17;;
55489;SDS011;44029;52.956;4.772;2022-08-25T16:36:07;41.65;;;31.08;;
55489;SDS011;44029;52.956;4.772;2022-08-25T16:38:35;39.78;;;28.95;;
55489;SDS011;44029;52.956;4.772;2022-08-25T16:41:10;37.70;;;27.08;;
55489;SDS011;44029;52.956;4.772;2022-08-25T16:43:38;37.25;;;27.40;;
55489;SDS011;44029;52.956;4.772;2022-08-25T16:46:05;50.00;;;32.47;;
55489;SDS011;44029;52.956;4.772;2022-08-25T16:48:32;45.33;;;33.70;;